sensor_id;sensor_type;location;lat;lon;timestamp;pressure;altitude;pressure_sealevel;temperature
78859;BMP280;68210;52.032;4.634;2023-07-02T00:01:33;100566.38;;;19.82
78859;BMP280;68210;52.032;4.634;2023-07-02T00:03:33;100567.84;;;19.64
78859;BMP280;68210;52.032;4.634;2023-07-02T00:05:34;100576.56;;;19.56
78859;BMP280;68210;52.032;4.634;2023-07-02T00:07:34;100568.50;;;19.72
78859;BMP280;68210;52.032;4.634;2023-07-02T00:09:36;100571.00;;;19.63
78859;BMP280;68210;52.032;4.634;2023-07-02T00:11:42;100573.03;;;19.85
78859;BMP280;68210;52.032;4.634;2023-07-02T00:13:42;100572.09;;;19.95
78859;BMP280;68210;52.032;4.634;2023-07-02T00:15:43;100568.25;;;19.89
78859;BMP280;68210;52.032;4.634;2023-07-02T00:17:43;100571.72;;;19.93
78859;BMP280;68210;52.032;4.634;2023-07-02T00:19:44;100563.75;;;20.02
78859;BMP280;68210;52.032;4.634;2023-07-02T00:21:46;100566.19;;;20.19
78859;BMP280;68210;52.032;4.634;2023-07-02T00:23:48;100564.88;;;20.27
78859;BMP280;68210;52.032;4.634;2023-07-02T00:25:48;100567.44;;;20.37
78859;BMP280;68210;52.032;4.634;2023-07-02T00:27:48;100569.34;;;20.40
78859;BMP280;68210;52.032;4.634;2023-07-02T00:29:49;100563.38;;;20.45
78859;BMP280;68210;52.032;4.634;2023-07-02T00:31:49;100561.69;;;20.51
78859;BMP280;68210;52.032;4.634;2023-07-02T00:33:50;100568.66;;;20.59
78859;BMP280;68210;52.032;4.634;2023-07-02T00:35:50;100571.63;;;20.68
78859;BMP280;68210;52.032;4.634;2023-07-02T00:37:51;100572.47;;;20.65
78859;BMP280;68210;52.032;4.634;2023-07-02T00:39:51;100572.47;;;20.65
78859;BMP280;68210;52.032;4.634;2023-07-02T00:41:52;100568.50;;;20.66
78859;BMP280;68210;52.032;4.634;2023-07-02T00:43:52;100563.00;;;20.43
78859;BMP280;68210;52.032;4.634;2023-07-02T00:45:54;100574.16;;;20.59
78859;BMP280;68210;52.032;4.634;2023-07-02T00:47:55;100576.06;;;20.62
78859;BMP280;68210;52.032;4.634;2023-07-02T00:49:55;100571.47;;;20.55
78859;BMP280;68210;52.032;4.634;2023-07-02T00:51:56;100572.69;;;20.28
78859;BMP280;68210;52.032;4.634;2023-07-02T00:53:57;100577.19;;;20.41
78859;BMP280;68210;52.032;4.634;2023-07-02T00:55:58;100579.31;;;20.34
78859;BMP280;68210;52.032;4.634;2023-07-02T00:57:58;100577.72;;;20.33
78859;BMP280;68210;52.032;4.634;2023-07-02T00:59:59;100576.59;;;20.31
78859;BMP280;68210;52.032;4.634;2023-07-02T01:02:03;100585.50;;;20.38
78859;BMP280;68210;52.032;4.634;2023-07-02T01:04:06;100573.78;;;20.34
78859;BMP280;68210;52.032;4.634;2023-07-02T01:06:07;100582.88;;;20.09
78859;BMP280;68210;52.032;4.634;2023-07-02T01:08:08;100582.28;;;19.98
78859;BMP280;68210;52.032;4.634;2023-07-02T01:10:09;100583.94;;;20.14
78859;BMP280;68210;52.032;4.634;2023-07-02T01:12:10;100592.28;;;20.11
78859;BMP280;68210;52.032;4.634;2023-07-02T01:14:24;100587.25;;;19.80
78859;BMP280;68210;52.032;4.634;2023-07-02T01:16:25;100594.31;;;19.81
78859;BMP280;68210;52.032;4.634;2023-07-02T01:18:26;100604.56;;;19.80
78859;BMP280;68210;52.032;4.634;2023-07-02T01:20:26;100591.28;;;19.72
78859;BMP280;68210;52.032;4.634;2023-07-02T01:22:28;100596.72;;;19.20
78859;BMP280;68210;52.032;4.634;2023-07-02T01:24:28;100595.63;;;19.44
78859;BMP280;68210;52.032;4.634;2023-07-02T01:26:32;100590.84;;;19.48
78859;BMP280;68210;52.032;4.634;2023-07-02T01:28:37;100583.44;;;19.45
78859;BMP280;68210;52.032;4.634;2023-07-02T01:30:38;100593.84;;;19.30
78859;BMP280;68210;52.032;4.634;2023-07-02T01:32:38;100588.47;;;19.49
78859;BMP280;68210;52.032;4.634;2023-07-02T01:34:39;100586.81;;;19.26
78859;BMP280;68210;52.032;4.634;2023-07-02T01:36:40;100574.88;;;19.39
78859;BMP280;68210;52.032;4.634;2023-07-02T01:38:40;100581.31;;;19.55
78859;BMP280;68210;52.032;4.634;2023-07-02T01:40:41;100576.41;;;19.70
78859;BMP280;68210;52.032;4.634;2023-07-02T01:42:42;100583.31;;;19.81
78859;BMP280;68210;52.032;4.634;2023-07-02T01:44:47;100584.72;;;19.92
78859;BMP280;68210;52.032;4.634;2023-07-02T01:46:48;100589.22;;;20.06
78859;BMP280;68210;52.032;4.634;2023-07-02T01:48:49;100582.16;;;20.05
78859;BMP280;68210;52.032;4.634;2023-07-02T01:50:49;100581.31;;;20.08
78859;BMP280;68210;52.032;4.634;2023-07-02T01:52:49;100576.66;;;20.05
78859;BMP280;68210;52.032;4.634;2023-07-02T01:54:50;100586.66;;;20.18
78859;BMP280;68210;52.032;4.634;2023-07-02T01:56:53;100591.66;;;20.23
78859;BMP280;68210;52.032;4.634;2023-07-02T01:58:53;100590.84;;;20.26
78859;BMP280;68210;52.032;4.634;2023-07-02T02:00:54;100591.16;;;20.31
78859;BMP280;68210;52.032;4.634;2023-07-02T02:02:54;100591.75;;;20.42
78859;BMP280;68210;52.032;4.634;2023-07-02T02:04:54;100581.88;;;20.44
78859;BMP280;68210;52.032;4.634;2023-07-02T02:06:56;100578.97;;;20.51
78859;BMP280;68210;52.032;4.634;2023-07-02T02:08:56;100586.94;;;20.46
78859;BMP280;68210;52.032;4.634;2023-07-02T02:10:57;100590.94;;;20.41
78859;BMP280;68210;52.032;4.634;2023-07-02T02:12:57;100594.25;;;20.33
78859;BMP280;68210;52.032;4.634;2023-07-02T02:14:58;100599.72;;;20.37
78859;BMP280;68210;52.032;4.634;2023-07-02T02:16:58;100600.59;;;20.30
78859;BMP280;68210;52.032;4.634;2023-07-02T02:18:58;100598.28;;;20.29
78859;BMP280;68210;52.032;4.634;2023-07-02T02:20:59;100604.41;;;20.13
78859;BMP280;68210;52.032;4.634;2023-07-02T02:22:59;100607.16;;;19.61
78859;BMP280;68210;52.032;4.634;2023-07-02T02:25:00;100603.72;;;19.83
78859;BMP280;68210;52.032;4.634;2023-07-02T02:27:00;100611.31;;;19.99
78859;BMP280;68210;52.032;4.634;2023-07-02T02:29:01;100605.34;;;20.04
78859;BMP280;68210;52.032;4.634;2023-07-02T02:31:01;100606.56;;;20.03
78859;BMP280;68210;52.032;4.634;2023-07-02T02:33:02;100609.63;;;19.82
78859;BMP280;68210;52.032;4.634;2023-07-02T02:35:03;100613.22;;;19.79
78859;BMP280;68210;52.032;4.634;2023-07-02T02:37:03;100620.09;;;19.64
78859;BMP280;68210;52.032;4.634;2023-07-02T02:39:04;100626.78;;;19.63
78859;BMP280;68210;52.032;4.634;2023-07-02T02:41:05;100622.09;;;19.60
78859;BMP280;68210;52.032;4.634;2023-07-02T02:43:08;100632.91;;;19.48
78859;BMP280;68210;52.032;4.634;2023-07-02T02:45:08;100619.91;;;19.48
78859;BMP280;68210;52.032;4.634;2023-07-02T02:47:09;100623.06;;;19.47
78859;BMP280;68210;52.032;4.634;2023-07-02T02:49:09;100623.13;;;19.44
78859;BMP280;68210;52.032;4.634;2023-07-02T02:51:10;100630.28;;;19.34
78859;BMP280;68210;52.032;4.634;2023-07-02T02:53:10;100634.81;;;19.51
78859;BMP280;68210;52.032;4.634;2023-07-02T02:55:12;100637.06;;;19.59
78859;BMP280;68210;52.032;4.634;2023-07-02T02:57:12;100640.44;;;19.41
78859;BMP280;68210;52.032;4.634;2023-07-02T02:59:13;100639.50;;;19.50
78859;BMP280;68210;52.032;4.634;2023-07-02T03:01:14;100627.78;;;19.47
78859;BMP280;68210;52.032;4.634;2023-07-02T03:03:15;100627.84;;;19.43
78859;BMP280;68210;52.032;4.634;2023-07-02T03:05:17;100633.47;;;19.62
78859;BMP280;68210;52.032;4.634;2023-07-02T03:07:17;100635.97;;;19.50
78859;BMP280;68210;52.032;4.634;2023-07-02T03:09:18;100632.19;;;19.70
78859;BMP280;68210;52.032;4.634;2023-07-02T03:11:19;100636.34;;;19.52
78859;BMP280;68210;52.032;4.634;2023-07-02T03:13:19;100625.94;;;19.40
78859;BMP280;68210;52.032;4.634;2023-07-02T03:15:19;100630.81;;;19.55
78859;BMP280;68210;52.032;4.634;2023-07-02T03:17:20;100635.03;;;19.63
78859;BMP280;68210;52.032;4.634;2023-07-02T03:19:21;100617.38;;;19.61
78859;BMP280;68210;52.032;4.634;2023-07-02T03:21:21;100616.72;;;19.53
78859;BMP280;68210;52.032;4.634;2023-07-02T03:23:21;100614.09;;;19.69
78859;BMP280;68210;52.032;4.634;2023-07-02T03:25:22;100603.63;;;19.61
78859;BMP280;68210;52.032;4.634;2023-07-02T03:27:22;100621.59;;;19.39
78859;BMP280;68210;52.032;4.634;2023-07-02T03:29:23;100619.03;;;19.55
78859;BMP280;68210;52.032;4.634;2023-07-02T03:31:23;100622.09;;;19.60
78859;BMP280;68210;52.032;4.634;2023-07-02T03:33:23;100623.91;;;19.44
78859;BMP280;68210;52.032;4.634;2023-07-02T03:35:24;100636.03;;;19.47
78859;BMP280;68210;52.032;4.634;2023-07-02T03:37:24;100639.16;;;19.48
78859;BMP280;68210;52.032;4.634;2023-07-02T03:39:24;100635.63;;;19.18
78859;BMP280;68210;52.032;4.634;2023-07-02T03:41:25;100639.88;;;19.23
78859;BMP280;68210;52.032;4.634;2023-07-02T03:43:25;100641.66;;;19.36
78859;BMP280;68210;52.032;4.634;2023-07-02T03:45:26;100647.81;;;19.47
78859;BMP280;68210;52.032;4.634;2023-07-02T03:47:26;100641.91;;;19.48
78859;BMP280;68210;52.032;4.634;2023-07-02T03:49:26;100641.13;;;19.48
78859;BMP280;68210;52.032;4.634;2023-07-02T03:51:27;100639.66;;;19.40
78859;BMP280;68210;52.032;4.634;2023-07-02T03:53:27;100645.97;;;19.37
78859;BMP280;68210;52.032;4.634;2023-07-02T03:55:28;100656.59;;;19.02
78859;BMP280;68210;52.032;4.634;2023-07-02T03:57:28;100647.72;;;19.24
78859;BMP280;68210;52.032;4.634;2023-07-02T03:59:28;100654.50;;;19.46
78859;BMP280;68210;52.032;4.634;2023-07-02T04:01:29;100659.09;;;19.56
78859;BMP280;68210;52.032;4.634;2023-07-02T04:03:29;100653.63;;;19.52
78859;BMP280;68210;52.032;4.634;2023-07-02T04:05:29;100661.69;;;19.66
78859;BMP280;68210;52.032;4.634;2023-07-02T04:07:30;100668.25;;;19.46
78859;BMP280;68210;52.032;4.634;2023-07-02T04:09:30;100662.97;;;19.58
78859;BMP280;68210;52.032;4.634;2023-07-02T04:11:33;100658.06;;;19.76
78859;BMP280;68210;52.032;4.634;2023-07-02T04:13:33;100662.06;;;19.68
78859;BMP280;68210;52.032;4.634;2023-07-02T04:15:33;100668.25;;;19.79
78859;BMP280;68210;52.032;4.634;2023-07-02T04:17:34;100665.19;;;20.00
78859;BMP280;68210;52.032;4.634;2023-07-02T04:19:34;100651.16;;;19.61
78859;BMP280;68210;52.032;4.634;2023-07-02T04:21:35;100670.91;;;19.86
78859;BMP280;68210;52.032;4.634;2023-07-02T04:23:35;100665.38;;;19.56
78859;BMP280;68210;52.032;4.634;2023-07-02T04:25:36;100662.25;;;19.54
78859;BMP280;68210;52.032;4.634;2023-07-02T04:27:36;100669.09;;;19.73
78859;BMP280;68210;52.032;4.634;2023-07-02T04:29:36;100680.34;;;19.85
78859;BMP280;68210;52.032;4.634;2023-07-02T04:31:37;100671.75;;;19.79
78859;BMP280;68210;52.032;4.634;2023-07-02T04:33:37;100674.69;;;19.95
78859;BMP280;68210;52.032;4.634;2023-07-02T04:35:38;100686.84;;;19.98
78859;BMP280;68210;52.032;4.634;2023-07-02T04:37:38;100682.31;;;19.84
78859;BMP280;68210;52.032;4.634;2023-07-02T04:39:39;100688.44;;;19.95
78859;BMP280;68210;52.032;4.634;2023-07-02T04:41:40;100687.06;;;20.10
78859;BMP280;68210;52.032;4.634;2023-07-02T04:43:40;100680.56;;;20.23
78859;BMP280;68210;52.032;4.634;2023-07-02T04:45:40;100691.69;;;20.39
78859;BMP280;68210;52.032;4.634;2023-07-02T04:47:43;100692.38;;;20.46
78859;BMP280;68210;52.032;4.634;2023-07-02T04:49:43;100695.66;;;20.12
78859;BMP280;68210;52.032;4.634;2023-07-02T04:51:44;100696.16;;;20.07
78859;BMP280;68210;52.032;4.634;2023-07-02T04:53:44;100699.72;;;20.04
78859;BMP280;68210;52.032;4.634;2023-07-02T04:55:45;100690.44;;;20.21
78859;BMP280;68210;52.032;4.634;2023-07-02T04:57:45;100697.75;;;20.05
78859;BMP280;68210;52.032;4.634;2023-07-02T04:59:46;100688.22;;;20.12
78859;BMP280;68210;52.032;4.634;2023-07-02T05:01:46;100694.88;;;19.85
78859;BMP280;68210;52.032;4.634;2023-07-02T05:03:47;100691.66;;;20.16
78859;BMP280;68210;52.032;4.634;2023-07-02T05:05:47;100690.38;;;20.24
78859;BMP280;68210;52.032;4.634;2023-07-02T05:07:47;100697.16;;;20.42
78859;BMP280;68210;52.032;4.634;2023-07-02T05:09:48;100693.66;;;20.16
78859;BMP280;68210;52.032;4.634;2023-07-02T05:11:49;100688.00;;;20.26
78859;BMP280;68210;52.032;4.634;2023-07-02T05:13:50;100696.53;;;20.58
78859;BMP280;68210;52.032;4.634;2023-07-02T05:15:50;100699.41;;;20.51
78859;BMP280;68210;52.032;4.634;2023-07-02T05:17:51;100693.22;;;20.43
78859;BMP280;68210;52.032;4.634;2023-07-02T05:19:51;100692.03;;;20.18
78859;BMP280;68210;52.032;4.634;2023-07-02T05:21:52;100703.69;;;20.29
78859;BMP280;68210;52.032;4.634;2023-07-02T05:23:52;100702.00;;;20.35
78859;BMP280;68210;52.032;4.634;2023-07-02T05:25:53;100703.75;;;20.22
78859;BMP280;68210;52.032;4.634;2023-07-02T05:27:53;100705.97;;;20.34
78859;BMP280;68210;52.032;4.634;2023-07-02T05:29:53;100710.97;;;20.39
78859;BMP280;68210;52.032;4.634;2023-07-02T05:31:54;100723.78;;;20.26
78859;BMP280;68210;52.032;4.634;2023-07-02T05:33:54;100720.34;;;20.45
78859;BMP280;68210;52.032;4.634;2023-07-02T05:35:55;100721.53;;;20.70
78859;BMP280;68210;52.032;4.634;2023-07-02T05:37:55;100721.47;;;20.73
78859;BMP280;68210;52.032;4.634;2023-07-02T05:39:55;100716.31;;;20.75
78859;BMP280;68210;52.032;4.634;2023-07-02T05:41:56;100726.31;;;20.89
78859;BMP280;68210;52.032;4.634;2023-07-02T05:43:57;100717.75;;;20.83
78859;BMP280;68210;52.032;4.634;2023-07-02T05:45:58;100731.50;;;21.06
78859;BMP280;68210;52.032;4.634;2023-07-02T05:48:02;100724.63;;;20.95
78859;BMP280;68210;52.032;4.634;2023-07-02T05:50:03;100743.41;;;20.80
78859;BMP280;68210;52.032;4.634;2023-07-02T05:52:03;100738.97;;;20.64
78859;BMP280;68210;52.032;4.634;2023-07-02T05:54:03;100743.19;;;20.68
78859;BMP280;68210;52.032;4.634;2023-07-02T05:56:04;100732.53;;;20.44
78859;BMP280;68210;52.032;4.634;2023-07-02T05:58:04;100753.13;;;20.36
78859;BMP280;68210;52.032;4.634;2023-07-02T06:00:05;100747.94;;;20.15
78859;BMP280;68210;52.032;4.634;2023-07-02T06:02:06;100751.66;;;20.28
78859;BMP280;68210;52.032;4.634;2023-07-02T06:04:06;100749.94;;;20.11
78859;BMP280;68210;52.032;4.634;2023-07-02T06:06:07;100754.28;;;20.12
78859;BMP280;68210;52.032;4.634;2023-07-02T06:08:07;100753.25;;;20.00
78859;BMP280;68210;52.032;4.634;2023-07-02T06:10:08;100759.72;;;20.16
78859;BMP280;68210;52.032;4.634;2023-07-02T06:12:09;100774.38;;;19.77
78859;BMP280;68210;52.032;4.634;2023-07-02T06:14:09;100773.53;;;19.83
78859;BMP280;68210;52.032;4.634;2023-07-02T06:16:10;100760.38;;;19.97
78859;BMP280;68210;52.032;4.634;2023-07-02T06:18:10;100768.69;;;19.94
78859;BMP280;68210;52.032;4.634;2023-07-02T06:20:11;100774.88;;;20.27
78859;BMP280;68210;52.032;4.634;2023-07-02T06:22:11;100767.25;;;20.38
78859;BMP280;68210;52.032;4.634;2023-07-02T06:24:12;100760.00;;;20.51
78859;BMP280;68210;52.032;4.634;2023-07-02T06:26:12;100763.84;;;20.57
78859;BMP280;68210;52.032;4.634;2023-07-02T06:28:12;100761.03;;;20.60
78859;BMP280;68210;52.032;4.634;2023-07-02T06:30:13;100772.69;;;20.94
78859;BMP280;68210;52.032;4.634;2023-07-02T06:32:14;100763.81;;;21.05
78859;BMP280;68210;52.032;4.634;2023-07-02T06:34:14;100762.75;;;21.22
78859;BMP280;68210;52.032;4.634;2023-07-02T06:36:14;100759.91;;;21.48
78859;BMP280;68210;52.032;4.634;2023-07-02T06:38:15;100769.75;;;21.49
78859;BMP280;68210;52.032;4.634;2023-07-02T06:40:15;100768.81;;;21.56
78859;BMP280;68210;52.032;4.634;2023-07-02T06:42:16;100768.13;;;21.29
78859;BMP280;68210;52.032;4.634;2023-07-02T06:44:16;100771.78;;;21.45
78859;BMP280;68210;52.032;4.634;2023-07-02T06:46:17;100768.53;;;21.50
78859;BMP280;68210;52.032;4.634;2023-07-02T06:48:17;100770.94;;;21.48
78859;BMP280;68210;52.032;4.634;2023-07-02T06:50:21;100778.78;;;21.50
78859;BMP280;68210;52.032;4.634;2023-07-02T06:52:22;100776.69;;;21.57
78859;BMP280;68210;52.032;4.634;2023-07-02T06:54:23;100788.16;;;21.75
78859;BMP280;68210;52.032;4.634;2023-07-02T06:56:23;100784.91;;;21.80
78859;BMP280;68210;52.032;4.634;2023-07-02T06:58:24;100790.91;;;22.13
78859;BMP280;68210;52.032;4.634;2023-07-02T07:00:24;100779.59;;;22.27
78859;BMP280;68210;52.032;4.634;2023-07-02T07:02:24;100789.22;;;22.19
78859;BMP280;68210;52.032;4.634;2023-07-02T07:04:25;100794.53;;;22.45
78859;BMP280;68210;52.032;4.634;2023-07-02T07:06:25;100784.09;;;22.53
78859;BMP280;68210;52.032;4.634;2023-07-02T07:08:25;100796.63;;;22.57
78859;BMP280;68210;52.032;4.634;2023-07-02T07:10:26;100796.91;;;21.89
78859;BMP280;68210;52.032;4.634;2023-07-02T07:12:27;100802.00;;;22.48
78859;BMP280;68210;52.032;4.634;2023-07-02T07:14:27;100797.06;;;22.55
78859;BMP280;68210;52.032;4.634;2023-07-02T07:16:27;100804.69;;;22.67
78859;BMP280;68210;52.032;4.634;2023-07-02T07:18:28;100803.81;;;22.70
78859;BMP280;68210;52.032;4.634;2023-07-02T07:20:29;100810.91;;;22.71
78859;BMP280;68210;52.032;4.634;2023-07-02T07:22:30;100809.97;;;22.78
78859;BMP280;68210;52.032;4.634;2023-07-02T07:24:30;100803.34;;;22.56
78859;BMP280;68210;52.032;4.634;2023-07-02T07:26:30;100805.03;;;22.54
78859;BMP280;68210;52.032;4.634;2023-07-02T07:28:31;100815.75;;;22.67
78859;BMP280;68210;52.032;4.634;2023-07-02T07:30:31;100827.34;;;22.78
78859;BMP280;68210;52.032;4.634;2023-07-02T07:32:32;100822.19;;;22.96
78859;BMP280;68210;52.032;4.634;2023-07-02T07:34:32;100821.84;;;22.94
78859;BMP280;68210;52.032;4.634;2023-07-02T07:36:33;100827.53;;;22.87
78859;BMP280;68210;52.032;4.634;2023-07-02T07:38:33;100825.38;;;23.26
78859;BMP280;68210;52.032;4.634;2023-07-02T07:40:34;100827.44;;;23.22
78859;BMP280;68210;52.032;4.634;2023-07-02T07:42:34;100827.09;;;23.36
78859;BMP280;68210;52.032;4.634;2023-07-02T07:44:34;100839.81;;;23.17
78859;BMP280;68210;52.032;4.634;2023-07-02T07:46:35;100841.88;;;22.98
78859;BMP280;68210;52.032;4.634;2023-07-02T07:48:35;100823.91;;;22.90
78859;BMP280;68210;52.032;4.634;2023-07-02T07:50:35;100833.94;;;23.00
78859;BMP280;68210;52.032;4.634;2023-07-02T07:52:37;100829.28;;;22.97
78859;BMP280;68210;52.032;4.634;2023-07-02T07:54:38;100830.06;;;22.97
78859;BMP280;68210;52.032;4.634;2023-07-02T07:56:38;100830.47;;;22.96
78859;BMP280;68210;52.032;4.634;2023-07-02T07:58:39;100834.63;;;23.19
78859;BMP280;68210;52.032;4.634;2023-07-02T08:00:39;100839.88;;;23.30
78859;BMP280;68210;52.032;4.634;2023-07-02T08:02:39;100830.47;;;23.27
78859;BMP280;68210;52.032;4.634;2023-07-02T08:04:40;100829.03;;;23.07
78859;BMP280;68210;52.032;4.634;2023-07-02T08:06:40;100836.34;;;22.98
78859;BMP280;68210;52.032;4.634;2023-07-02T08:08:40;100841.00;;;23.32
78859;BMP280;68210;52.032;4.634;2023-07-02T08:10:41;100823.69;;;23.60
78859;BMP280;68210;52.032;4.634;2023-07-02T08:12:41;100836.03;;;23.71
78859;BMP280;68210;52.032;4.634;2023-07-02T08:14:42;100839.44;;;23.63
78859;BMP280;68210;52.032;4.634;2023-07-02T08:16:42;100837.34;;;23.67
78859;BMP280;68210;52.032;4.634;2023-07-02T08:18:42;100843.19;;;23.56
78859;BMP280;68210;52.032;4.634;2023-07-02T08:20:43;100847.66;;;23.94
78859;BMP280;68210;52.032;4.634;2023-07-02T08:22:43;100845.19;;;24.12
78859;BMP280;68210;52.032;4.634;2023-07-02T08:24:44;100837.41;;;24.07
78859;BMP280;68210;52.032;4.634;2023-07-02T08:26:44;100844.81;;;23.82
78859;BMP280;68210;52.032;4.634;2023-07-02T08:28:45;100842.66;;;23.61
78859;BMP280;68210;52.032;4.634;2023-07-02T08:30:46;100846.19;;;23.15
78859;BMP280;68210;52.032;4.634;2023-07-02T08:32:47;100855.38;;;23.27
78859;BMP280;68210;52.032;4.634;2023-07-02T08:34:48;100848.28;;;23.26
78859;BMP280;68210;52.032;4.634;2023-07-02T08:36:48;100851.63;;;23.49
78859;BMP280;68210;52.032;4.634;2023-07-02T08:38:49;100842.91;;;23.19
78859;BMP280;68210;52.032;4.634;2023-07-02T08:40:50;100855.81;;;23.26
78859;BMP280;68210;52.032;4.634;2023-07-02T08:42:50;100856.84;;;23.32
78859;BMP280;68210;52.032;4.634;2023-07-02T08:44:53;100852.09;;;23.01
78859;BMP280;68210;52.032;4.634;2023-07-02T08:46:55;100863.81;;;23.36
78859;BMP280;68210;52.032;4.634;2023-07-02T08:48:57;100858.19;;;23.71
78859;BMP280;68210;52.032;4.634;2023-07-02T08:50:57;100855.19;;;23.94
78859;BMP280;68210;52.032;4.634;2023-07-02T08:52:58;100859.91;;;23.81
78859;BMP280;68210;52.032;4.634;2023-07-02T08:54:58;100871.22;;;23.86
78859;BMP280;68210;52.032;4.634;2023-07-02T08:56:59;100863.66;;;23.75
78859;BMP280;68210;52.032;4.634;2023-07-02T08:59:01;100863.66;;;23.75
78859;BMP280;68210;52.032;4.634;2023-07-02T09:01:11;100869.56;;;23.61
78859;BMP280;68210;52.032;4.634;2023-07-02T09:03:13;100867.81;;;23.67
78859;BMP280;68210;52.032;4.634;2023-07-02T09:05:14;100867.91;;;23.91
78859;BMP280;68210;52.032;4.634;2023-07-02T09:07:15;100864.75;;;24.05
78859;BMP280;68210;52.032;4.634;2023-07-02T09:09:15;100872.97;;;23.80
78859;BMP280;68210;52.032;4.634;2023-07-02T09:11:16;100857.56;;;24.08
78859;BMP280;68210;52.032;4.634;2023-07-02T09:13:20;100877.53;;;24.15
78859;BMP280;68210;52.032;4.634;2023-07-02T09:15:23;100868.88;;;24.13
78859;BMP280;68210;52.032;4.634;2023-07-02T09:17:31;100868.91;;;23.85
78859;BMP280;68210;52.032;4.634;2023-07-02T09:19:32;100876.25;;;23.76
78859;BMP280;68210;52.032;4.634;2023-07-02T09:23:46;100875.69;;;24.24
78859;BMP280;68210;52.032;4.634;2023-07-02T09:25:46;100879.47;;;24.02
78859;BMP280;68210;52.032;4.634;2023-07-02T09:27:47;100873.41;;;24.07
78859;BMP280;68210;52.032;4.634;2023-07-02T09:29:51;100880.25;;;24.03
78859;BMP280;68210;52.032;4.634;2023-07-02T09:32:02;100883.09;;;24.15
78859;BMP280;68210;52.032;4.634;2023-07-02T09:34:03;100882.78;;;23.97
78859;BMP280;68210;52.032;4.634;2023-07-02T09:36:04;100877.25;;;23.97
78859;BMP280;68210;52.032;4.634;2023-07-02T09:38:05;100883.06;;;24.31
78859;BMP280;68210;52.032;4.634;2023-07-02T09:40:06;100870.06;;;24.28
78859;BMP280;68210;52.032;4.634;2023-07-02T09:42:09;100877.34;;;24.22
78859;BMP280;68210;52.032;4.634;2023-07-02T09:44:11;100868.16;;;24.25
78859;BMP280;68210;52.032;4.634;2023-07-02T09:46:13;100867.84;;;24.35
78859;BMP280;68210;52.032;4.634;2023-07-02T09:48:14;100873.09;;;24.33
78859;BMP280;68210;52.032;4.634;2023-07-02T09:50:17;100881.06;;;24.31
78859;BMP280;68210;52.032;4.634;2023-07-02T09:52:19;100877.25;;;23.97
78859;BMP280;68210;52.032;4.634;2023-07-02T09:54:20;100883.13;;;23.99
78859;BMP280;68210;52.032;4.634;2023-07-02T09:56:20;100866.75;;;24.33
78859;BMP280;68210;52.032;4.634;2023-07-02T09:58:21;100872.50;;;24.26
78859;BMP280;68210;52.032;4.634;2023-07-02T10:00:22;100881.81;;;23.60
78859;BMP280;68210;52.032;4.634;2023-07-02T10:02:23;100880.63;;;23.61
78859;BMP280;68210;52.032;4.634;2023-07-02T10:04:23;100882.00;;;23.97
78859;BMP280;68210;52.032;4.634;2023-07-02T10:06:24;100892.59;;;24.14
78859;BMP280;68210;52.032;4.634;2023-07-02T10:08:24;100886.38;;;24.10
78859;BMP280;68210;52.032;4.634;2023-07-02T10:10:31;100899.53;;;24.22
78859;BMP280;68210;52.032;4.634;2023-07-02T10:12:31;100881.50;;;24.14
78859;BMP280;68210;52.032;4.634;2023-07-02T10:14:45;100892.25;;;24.28
78859;BMP280;68210;52.032;4.634;2023-07-02T10:16:52;100881.63;;;24.39
78859;BMP280;68210;52.032;4.634;2023-07-02T10:18:53;100896.53;;;24.69
78859;BMP280;68210;52.032;4.634;2023-07-02T10:20:54;100894.31;;;24.64
78859;BMP280;68210;52.032;4.634;2023-07-02T10:22:54;100888.53;;;24.46
78859;BMP280;68210;52.032;4.634;2023-07-02T10:24:58;100891.03;;;24.13
78859;BMP280;68210;52.032;4.634;2023-07-02T10:27:03;100908.19;;;24.24
78859;BMP280;68210;52.032;4.634;2023-07-02T10:29:04;100902.88;;;24.29
78859;BMP280;68210;52.032;4.634;2023-07-02T10:31:20;100914.59;;;24.21
78859;BMP280;68210;52.032;4.634;2023-07-02T10:33:21;100894.84;;;24.19
78859;BMP280;68210;52.032;4.634;2023-07-02T10:35:21;100897.38;;;23.85
78859;BMP280;68210;52.032;4.634;2023-07-02T10:37:22;100898.56;;;23.84
78859;BMP280;68210;52.032;4.634;2023-07-02T10:39:23;100906.88;;;23.84
78859;BMP280;68210;52.032;4.634;2023-07-02T10:41:26;100903.53;;;24.05
78859;BMP280;68210;52.032;4.634;2023-07-02T10:43:30;100905.97;;;24.03
78859;BMP280;68210;52.032;4.634;2023-07-02T10:45:35;100903.75;;;23.98
78859;BMP280;68210;52.032;4.634;2023-07-02T10:47:39;100908.63;;;23.63
78859;BMP280;68210;52.032;4.634;2023-07-02T10:49:40;100915.38;;;23.78
78859;BMP280;68210;52.032;4.634;2023-07-02T10:51:40;100902.81;;;23.42
78859;BMP280;68210;52.032;4.634;2023-07-02T10:53:41;100907.53;;;23.29
78859;BMP280;68210;52.032;4.634;2023-07-02T10:55:41;100913.97;;;23.22
78859;BMP280;68210;52.032;4.634;2023-07-02T10:57:41;100907.75;;;23.03
78859;BMP280;68210;52.032;4.634;2023-07-02T10:59:42;100909.72;;;22.67
78859;BMP280;68210;52.032;4.634;2023-07-02T11:01:42;100918.91;;;22.80
78859;BMP280;68210;52.032;4.634;2023-07-02T11:03:43;100918.50;;;22.62
78859;BMP280;68210;52.032;4.634;2023-07-02T11:05:43;100920.09;;;22.79
78859;BMP280;68210;52.032;4.634;2023-07-02T11:07:44;100915.25;;;22.67
78859;BMP280;68210;52.032;4.634;2023-07-02T11:09:51;100923.44;;;22.90
78859;BMP280;68210;52.032;4.634;2023-07-02T11:11:56;100934.03;;;23.11
78859;BMP280;68210;52.032;4.634;2023-07-02T11:13:57;100921.09;;;23.23
78859;BMP280;68210;52.032;4.634;2023-07-02T11:15:57;100931.28;;;23.26
78859;BMP280;68210;52.032;4.634;2023-07-02T11:18:09;100938.69;;;23.14
78859;BMP280;68210;52.032;4.634;2023-07-02T11:20:11;100919.59;;;23.19
78859;BMP280;68210;52.032;4.634;2023-07-02T11:22:11;100916.22;;;23.12
78859;BMP280;68210;52.032;4.634;2023-07-02T11:24:12;100927.44;;;22.89
78859;BMP280;68210;52.032;4.634;2023-07-02T11:26:12;100924.16;;;22.75
78859;BMP280;68210;52.032;4.634;2023-07-02T11:28:12;100919.72;;;22.81
78859;BMP280;68210;52.032;4.634;2023-07-02T11:30:13;100908.38;;;23.10